Atlantic - Newfoundland: Past 24 Hour Conditions

 

Stephenville Airport

10:30 PM NDT 27 August 2014
This table is a summary of hourly weather conditions for the past 24 hours.
Date / Time
(NDT)
Wind(knots) Conditions Visibility(km) Pressure(kPa) Air tempC) Relative humidity(%) Dew pointC) Humidex
27 August 2014
22:30 SSW 7 Cloudy 19 100.8 19 86 16 *
21:30 SW 9 Cloudy 19 100.8 19 85 16 *
20:30 SW 10 Cloudy 19 100.7 19 84 16 *
19:30 WSW 10 Cloudy 19 100.7 19 83 16 *
18:30 WSW 15 Cloudy 19 100.7 19 82 16 *
17:30 WSW 15 Cloudy 19 100.7 19 81 16 *
16:30 WSW 16 gust 23 Cloudy 24 100.6 20 79 16 *
15:30 WSW 15 gust 21 Cloudy 24 100.7 20 78 16 *
14:30 WSW 15 gust 20 Cloudy 24 100.7 20 78 16 *
13:30 W 16 gust 23 Cloudy 24 100.7 20 75 15 *
12:30 WSW 21 gust 31 Cloudy 24 100.6 20 74 15 *
11:30 WSW 16 Cloudy 24 100.7 20 76 15 *
10:30 WSW 14 gust 19 Cloudy 24 100.8 20 76 16 *
9:30 WSW 14 gust 20 Cloudy 24 100.8 20 76 16 25
8:30 WSW 14 gust 20 Cloudy 24 100.8 20 78 16 *
7:30 WSW 16 gust 24 Cloudy 24 100.9 20 74 16 25
6:30 WSW 21 Mostly Cloudy 24 100.8 20 76 16 25
5:30 WSW 10 Mostly Cloudy 24 100.9 21 74 16 25
4:30 WSW 10 gust 16 Partly Cloudy 24 100.9 21 72 16 26
3:30 WSW 5 Partly Cloudy 24 101.0 21 74 16 26
2:30 WNW 5 Clear 24 101.1 20 78 16 *
1:30 SW 12 Clear 24 101.1 21 73 16 26
0:30 calm Clear 24 101.2 19 79 16 *
26 August 2014
23:30 SSE 6 Clear 24 101.3 21 74 16 25
22:30 calm Clear 24 101.3 20 80 16 25
 
Map of Atlantic - Newfoundland marine weather areas Southwestern Grand Banks - 44138 Banquereau - 44139 Tail of the Bank - 44140 Nickerson Bank - 44251 Northeast Burgeo Bank - 44255 Blanc-Sablon Airport Cap Whittle Chevery Natashquan Airport Heath Point Miscou Island Grand Étang Ingonish Beach North Mountain St.Paul Island J.A. Douglas McCurdy Sydney Airport Charlottetown Airport East Point North Cape Argentia Bonavista Burgeo Cape Race Corner Brook Daniel's Harbour Englee Ferolle Point La Scie Port aux Basques Rocky Harbour Sagona Island St. Anthony Airport St. John's Int'l Airport St. Lawrence Stephenville Airport Twillingate Winterland Wreckhouse Cartwright Airport Mary's Harbour Grates Cove Pool's Island Marticot Island Long Pond Îles de la Madeleine Airport
Legend: buoyBuoy land stationLand Station